sensor_id;sensor_type;location;lat;lon;timestamp;pressure;altitude;pressure_sealevel;temperature;humidity
42621;BME280;28252;53.336;-6.298;2023-05-02T00:00:05;101797.03;;;21.73;100.00
42621;BME280;28252;53.336;-6.298;2023-05-02T00:01:19;101791.75;;;21.72;100.00
42621;BME280;28252;53.336;-6.298;2023-05-02T00:01:53;101794.47;;;21.72;100.00
42621;BME280;28252;53.336;-6.298;2023-05-02T00:02:24;101793.63;;;21.71;100.00
42621;BME280;28252;53.336;-6.298;2023-05-02T00:02:57;101796.31;;;21.71;100.00
42621;BME280;28252;53.336;-6.298;2023-05-02T00:03:32;101791.91;;;21.70;100.00
42621;BME280;28252;53.336;-6.298;2023-05-02T00:04:04;101797.31;;;21.70;100.00
42621;BME280;28252;53.336;-6.298;2023-05-02T00:04:39;101794.75;;;21.69;100.00
42621;BME280;28252;53.336;-6.298;2023-05-02T00:05:13;101791.91;;;21.70;100.00
42621;BME280;28252;53.336;-6.298;2023-05-02T00:05:48;101796.47;;;21.70;100.00
42621;BME280;28252;53.336;-6.298;2023-05-02T00:06:19;101795.63;;;21.69;100.00
42621;BME280;28252;53.336;-6.298;2023-05-02T00:06:52;101797.31;;;21.70;100.00
42621;BME280;28252;53.336;-6.298;2023-05-02T00:07:26;101795.63;;;21.69;100.00
42621;BME280;28252;53.336;-6.298;2023-05-02T00:07:57;101795.63;;;21.69;100.00
42621;BME280;28252;53.336;-6.298;2023-05-02T00:08:28;101796.63;;;21.68;100.00
42621;BME280;28252;53.336;-6.298;2023-05-02T00:09:04;101793.91;;;21.68;100.00
42621;BME280;28252;53.336;-6.298;2023-05-02T00:09:37;101795.63;;;21.69;100.00
42621;BME280;28252;53.336;-6.298;2023-05-02T00:10:08;101802.91;;;21.69;100.00
42621;BME280;28252;53.336;-6.298;2023-05-02T00:10:42;101797.63;;;21.67;100.00
42621;BME280;28252;53.336;-6.298;2023-05-02T00:11:19;101799.50;;;21.67;100.00
42621;BME280;28252;53.336;-6.298;2023-05-02T00:11:51;101803.03;;;21.67;100.00
42621;BME280;28252;53.336;-6.298;2023-05-02T00:12:26;101799.63;;;21.65;100.00
42621;BME280;28252;53.336;-6.298;2023-05-02T00:13:03;101802.19;;;21.67;100.00
42621;BME280;28252;53.336;-6.298;2023-05-02T00:13:41;101800.47;;;21.66;100.00
42621;BME280;28252;53.336;-6.298;2023-05-02T00:14:14;101801.34;;;21.66;100.00
42621;BME280;28252;53.336;-6.298;2023-05-02T00:14:45;101805.91;;;21.66;100.00
42621;BME280;28252;53.336;-6.298;2023-05-02T00:15:21;101799.63;;;21.65;100.00
42621;BME280;28252;53.336;-6.298;2023-05-02T00:15:58;101802.34;;;21.65;100.00
42621;BME280;28252;53.336;-6.298;2023-05-02T00:16:29;101797.06;;;21.63;100.00
42621;BME280;28252;53.336;-6.298;2023-05-02T00:17:00;101801.66;;;21.63;100.00
42621;BME280;28252;53.336;-6.298;2023-05-02T00:17:31;101807.09;;;21.63;100.00
42621;BME280;28252;53.336;-6.298;2023-05-02T00:18:05;101799.94;;;21.62;100.00
42621;BME280;28252;53.336;-6.298;2023-05-02T00:18:40;101793.69;;;21.61;100.00
42621;BME280;28252;53.336;-6.298;2023-05-02T00:19:11;101805.38;;;21.62;100.00
42621;BME280;28252;53.336;-6.298;2023-05-02T00:19:42;101798.25;;;21.61;100.00
42621;BME280;28252;53.336;-6.298;2023-05-02T00:20:17;101796.53;;;21.60;100.00
42621;BME280;28252;53.336;-6.298;2023-05-02T00:20:51;101796.53;;;21.60;100.00
42621;BME280;28252;53.336;-6.298;2023-05-02T00:21:26;101792.97;;;21.59;100.00
42621;BME280;28252;53.336;-6.298;2023-05-02T00:22:00;101796.53;;;21.60;100.00
42621;BME280;28252;53.336;-6.298;2023-05-02T00:22:38;101797.53;;;21.59;100.00
42621;BME280;28252;53.336;-6.298;2023-05-02T00:23:11;101803.69;;;21.61;100.00
42621;BME280;28252;53.336;-6.298;2023-05-02T00:23:45;101796.53;;;21.60;100.00
42621;BME280;28252;53.336;-6.298;2023-05-02T00:24:21;101801.97;;;21.60;100.00
42621;BME280;28252;53.336;-6.298;2023-05-02T00:24:56;101800.25;;;21.59;100.00
42621;BME280;28252;53.336;-6.298;2023-05-02T00:25:30;101803.97;;;21.58;100.00
42621;BME280;28252;53.336;-6.298;2023-05-02T00:26:08;101797.72;;;21.57;100.00
42621;BME280;28252;53.336;-6.298;2023-05-02T00:26:46;101798.56;;;21.58;100.00
42621;BME280;28252;53.336;-6.298;2023-05-02T00:27:22;101796.84;;;21.57;100.00
42621;BME280;28252;53.336;-6.298;2023-05-02T00:27:57;101796.84;;;21.57;100.00
42621;BME280;28252;53.336;-6.298;2023-05-02T00:28:35;101795.16;;;21.56;100.00
42621;BME280;28252;53.336;-6.298;2023-05-02T00:29:08;101797.88;;;21.56;100.00
42621;BME280;28252;53.336;-6.298;2023-05-02T00:29:44;101803.28;;;21.56;100.00
42621;BME280;28252;53.336;-6.298;2023-05-02T00:34:02;101806.28;;;21.53;100.00
42621;BME280;28252;53.336;-6.298;2023-05-02T00:34:33;101800.88;;;21.53;100.00
42621;BME280;28252;53.336;-6.298;2023-05-02T00:35:07;101813.72;;;21.51;100.00
42621;BME280;28252;53.336;-6.298;2023-05-02T00:35:42;101808.31;;;21.51;100.00
42621;BME280;28252;53.336;-6.298;2023-05-02T00:36:20;101808.31;;;21.51;100.00
42621;BME280;28252;53.336;-6.298;2023-05-02T00:36:56;101810.00;;;21.52;100.00
42621;BME280;28252;53.336;-6.298;2023-05-02T00:37:27;101807.44;;;21.50;100.00
42621;BME280;28252;53.336;-6.298;2023-05-02T00:38:00;101809.31;;;21.50;100.00
42621;BME280;28252;53.336;-6.298;2023-05-02T00:38:33;101808.47;;;21.49;100.00
42621;BME280;28252;53.336;-6.298;2023-05-02T00:39:06;101798.47;;;21.50;100.00
42621;BME280;28252;53.336;-6.298;2023-05-02T00:39:39;101799.44;;;21.49;100.00
42621;BME280;28252;53.336;-6.298;2023-05-02T00:40:13;101804.88;;;21.49;100.00
42621;BME280;28252;53.336;-6.298;2023-05-02T00:40:51;101811.31;;;21.48;100.00
42621;BME280;28252;53.336;-6.298;2023-05-02T00:41:27;101808.59;;;21.48;100.00
42621;BME280;28252;53.336;-6.298;2023-05-02T00:41:59;101807.75;;;21.47;100.00
42621;BME280;28252;53.336;-6.298;2023-05-02T00:42:31;101807.75;;;21.47;100.00
42621;BME280;28252;53.336;-6.298;2023-05-02T00:43:06;101809.59;;;21.47;100.00
42621;BME280;28252;53.336;-6.298;2023-05-02T00:43:42;101815.03;;;21.47;100.00
42621;BME280;28252;53.336;-6.298;2023-05-02T00:44:17;101811.44;;;21.46;100.00
42621;BME280;28252;53.336;-6.298;2023-05-02T00:44:50;101817.84;;;21.45;100.00
42621;BME280;28252;53.336;-6.298;2023-05-02T00:45:26;101807.00;;;21.45;100.00
42621;BME280;28252;53.336;-6.298;2023-05-02T00:46:04;101814.28;;;21.44;100.00
42621;BME280;28252;53.336;-6.298;2023-05-02T00:46:37;101808.03;;;21.44;100.00
42621;BME280;28252;53.336;-6.298;2023-05-02T00:47:13;101814.44;;;21.43;100.00
42621;BME280;28252;53.336;-6.298;2023-05-02T00:47:49;101816.31;;;21.42;100.00
42621;BME280;28252;53.336;-6.298;2023-05-02T00:48:25;101817.16;;;21.43;100.00
42621;BME280;28252;53.336;-6.298;2023-05-02T00:48:56;101814.44;;;21.43;100.00
42621;BME280;28252;53.336;-6.298;2023-05-02T00:49:34;101816.31;;;21.42;100.00
42621;BME280;28252;53.336;-6.298;2023-05-02T00:50:10;101817.28;;;21.41;100.00
42621;BME280;28252;53.336;-6.298;2023-05-02T00:50:48;101814.59;;;21.41;100.00
42621;BME280;28252;53.336;-6.298;2023-05-02T00:51:24;101814.59;;;21.41;100.00
42621;BME280;28252;53.336;-6.298;2023-05-02T00:52:04;101809.16;;;21.41;100.00
42621;BME280;28252;53.336;-6.298;2023-05-02T00:52:39;101818.31;;;21.40;100.00
42621;BME280;28252;53.336;-6.298;2023-05-02T00:53:10;101812.91;;;21.40;100.00
42621;BME280;28252;53.336;-6.298;2023-05-02T00:53:45;101819.16;;;21.41;100.00
42621;BME280;28252;53.336;-6.298;2023-05-02T00:54:21;101814.59;;;21.41;100.00
42621;BME280;28252;53.336;-6.298;2023-05-02T00:54:59;101811.19;;;21.39;100.00
42621;BME280;28252;53.336;-6.298;2023-05-02T00:55:34;101808.47;;;21.39;100.00
42621;BME280;28252;53.336;-6.298;2023-05-02T00:56:07;101807.47;;;21.40;100.00
42621;BME280;28252;53.336;-6.298;2023-05-02T00:56:41;101815.63;;;21.40;100.00
42621;BME280;28252;53.336;-6.298;2023-05-02T00:57:12;101819.31;;;21.39;100.00
42621;BME280;28252;53.336;-6.298;2023-05-02T00:57:43;101816.59;;;21.39;100.00
42621;BME280;28252;53.336;-6.298;2023-05-02T00:58:20;101811.19;;;21.39;100.00
42621;BME280;28252;53.336;-6.298;2023-05-02T00:58:51;101816.59;;;21.39;100.00
42621;BME280;28252;53.336;-6.298;2023-05-02T00:59:27;101814.88;;;21.38;100.00
42621;BME280;28252;53.336;-6.298;2023-05-02T01:00:03;101814.88;;;21.38;100.00
42621;BME280;28252;53.336;-6.298;2023-05-02T01:01:53;101816.91;;;21.36;100.00
42621;BME280;28252;53.336;-6.298;2023-05-02T01:02:55;101823.19;;;21.37;100.00
42621;BME280;28252;53.336;-6.298;2023-05-02T01:04:15;101811.47;;;21.36;100.00
42621;BME280;28252;53.336;-6.298;2023-05-02T01:04:53;101820.63;;;21.35;100.00
42621;BME280;28252;53.336;-6.298;2023-05-02T01:05:44;101811.63;;;21.35;100.00
42621;BME280;28252;53.336;-6.298;2023-05-02T01:06:27;101815.34;;;21.34;100.00
42621;BME280;28252;53.336;-6.298;2023-05-02T01:11:43;101809.38;;;21.30;100.00
42621;BME280;28252;53.336;-6.298;2023-05-02T01:16:52;101811.53;;;21.26;100.00
42621;BME280;28252;53.336;-6.298;2023-05-02T01:17:31;101813.38;;;21.26;100.00
42621;BME280;28252;53.336;-6.298;2023-05-02T01:18:02;101816.09;;;21.26;100.00
42621;BME280;28252;53.336;-6.298;2023-05-02T01:18:35;101813.38;;;21.26;100.00
42621;BME280;28252;53.336;-6.298;2023-05-02T01:19:30;101810.69;;;21.26;100.00
42621;BME280;28252;53.336;-6.298;2023-05-02T01:20:11;101818.81;;;21.26;100.00
42621;BME280;28252;53.336;-6.298;2023-05-02T01:20:46;101816.09;;;21.26;100.00
42621;BME280;28252;53.336;-6.298;2023-05-02T01:21:19;101815.25;;;21.25;100.00
42621;BME280;28252;53.336;-6.298;2023-05-02T01:21:55;101812.69;;;21.24;100.00
42621;BME280;28252;53.336;-6.298;2023-05-02T01:22:29;101813.53;;;21.24;100.00
42621;BME280;28252;53.336;-6.298;2023-05-02T01:23:06;101813.69;;;21.23;100.00
42621;BME280;28252;53.336;-6.298;2023-05-02T01:25:01;101818.09;;;21.24;100.00
42621;BME280;28252;53.336;-6.298;2023-05-02T01:25:54;101815.41;;;21.24;100.00
42621;BME280;28252;53.336;-6.298;2023-05-02T01:26:50;101815.53;;;21.22;100.00
42621;BME280;28252;53.336;-6.298;2023-05-02T01:28:26;101825.41;;;21.23;100.00
42621;BME280;28252;53.336;-6.298;2023-05-02T01:29:01;101814.56;;;21.23;100.00
42621;BME280;28252;53.336;-6.298;2023-05-02T01:29:33;101816.38;;;21.23;100.00
42621;BME280;28252;53.336;-6.298;2023-05-02T01:30:10;101815.53;;;21.22;100.00
42621;BME280;28252;53.336;-6.298;2023-05-02T01:30:42;101821.81;;;21.23;100.00
42621;BME280;28252;53.336;-6.298;2023-05-02T01:31:14;101819.25;;;21.21;100.00
42621;BME280;28252;53.336;-6.298;2023-05-02T01:31:50;101820.13;;;21.22;100.00
42621;BME280;28252;53.336;-6.298;2023-05-02T01:33:32;101815.69;;;21.21;100.00
42621;BME280;28252;53.336;-6.298;2023-05-02T01:34:08;101819.25;;;21.21;100.00
42621;BME280;28252;53.336;-6.298;2023-05-02T01:34:49;101821.13;;;21.21;100.00
42621;BME280;28252;53.336;-6.298;2023-05-02T01:35:24;101819.44;;;21.20;100.00
42621;BME280;28252;53.336;-6.298;2023-05-02T01:36:01;101823.81;;;21.21;100.00
42621;BME280;28252;53.336;-6.298;2023-05-02T01:36:37;101828.41;;;21.20;100.00
42621;BME280;28252;53.336;-6.298;2023-05-02T01:37:15;101824.84;;;21.20;100.00
42621;BME280;28252;53.336;-6.298;2023-05-02T01:37:49;101827.56;;;21.20;100.00
42621;BME280;28252;53.336;-6.298;2023-05-02T01:38:26;101825.84;;;21.19;100.00
42621;BME280;28252;53.336;-6.298;2023-05-02T01:39:02;101832.09;;;21.19;100.00
42621;BME280;28252;53.336;-6.298;2023-05-02T01:39:36;101827.69;;;21.18;100.00
42621;BME280;28252;53.336;-6.298;2023-05-02T01:40:16;101825.84;;;21.19;100.00
42621;BME280;28252;53.336;-6.298;2023-05-02T01:40:50;101829.53;;;21.18;100.00
42621;BME280;28252;53.336;-6.298;2023-05-02T01:41:24;101826.81;;;21.18;100.00
42621;BME280;28252;53.336;-6.298;2023-05-02T01:41:56;101824.13;;;21.18;100.00
42621;BME280;28252;53.336;-6.298;2023-05-02T01:42:29;101824.13;;;21.18;100.00
42621;BME280;28252;53.336;-6.298;2023-05-02T01:43:08;101822.44;;;21.17;100.00
42621;BME280;28252;53.336;-6.298;2023-05-02T01:43:39;101820.72;;;21.16;100.00
42621;BME280;28252;53.336;-6.298;2023-05-02T01:44:14;101829.69;;;21.16;100.00
42621;BME280;28252;53.336;-6.298;2023-05-02T01:44:48;101825.28;;;21.15;100.00
42621;BME280;28252;53.336;-6.298;2023-05-02T01:45:25;101820.72;;;21.16;100.00
42621;BME280;28252;53.336;-6.298;2023-05-02T01:46:04;101825.28;;;21.15;100.00
42621;BME280;28252;53.336;-6.298;2023-05-02T01:46:38;101815.28;;;21.16;100.00
42621;BME280;28252;53.336;-6.298;2023-05-02T01:47:17;101819.88;;;21.15;100.00
42621;BME280;28252;53.336;-6.298;2023-05-02T01:47:49;101824.44;;;21.15;100.00
42621;BME280;28252;53.336;-6.298;2023-05-02T01:48:21;101822.72;;;21.14;100.00
42621;BME280;28252;53.336;-6.298;2023-05-02T01:48:57;101820.00;;;21.14;100.00
42621;BME280;28252;53.336;-6.298;2023-05-02T01:49:33;101817.31;;;21.14;100.00
42621;BME280;28252;53.336;-6.298;2023-05-02T01:50:14;101821.88;;;21.13;100.00
42621;BME280;28252;53.336;-6.298;2023-05-02T01:50:51;101827.16;;;21.15;100.00
42621;BME280;28252;53.336;-6.298;2023-05-02T01:51:24;101827.16;;;21.15;100.00
42621;BME280;28252;53.336;-6.298;2023-05-02T01:52:02;101820.84;;;21.14;100.00
42621;BME280;28252;53.336;-6.298;2023-05-02T01:52:42;101817.31;;;21.14;100.00
42621;BME280;28252;53.336;-6.298;2023-05-02T01:53:14;101821.00;;;21.13;100.00
42621;BME280;28252;53.336;-6.298;2023-05-02T01:53:50;101821.88;;;21.13;100.00
42621;BME280;28252;53.336;-6.298;2023-05-02T01:54:28;101818.28;;;21.13;100.00
42621;BME280;28252;53.336;-6.298;2023-05-02T01:55:00;101816.47;;;21.13;100.00
42621;BME280;28252;53.336;-6.298;2023-05-02T01:55:34;101819.16;;;21.13;100.00
42621;BME280;28252;53.336;-6.298;2023-05-02T01:56:08;101818.28;;;21.13;100.00
42621;BME280;28252;53.336;-6.298;2023-05-02T01:56:42;101820.16;;;21.12;100.00
42621;BME280;28252;53.336;-6.298;2023-05-02T01:57:17;101818.44;;;21.11;100.00
42621;BME280;28252;53.336;-6.298;2023-05-02T01:57:53;101815.59;;;21.13;100.00
42621;BME280;28252;53.336;-6.298;2023-05-02T01:58:28;101813.03;;;21.11;100.00
42621;BME280;28252;53.336;-6.298;2023-05-02T01:59:10;101817.59;;;21.11;100.00
42621;BME280;28252;53.336;-6.298;2023-05-02T01:59:44;101816.75;;;21.10;100.00
42621;BME280;28252;53.336;-6.298;2023-05-02T02:00:21;101820.31;;;21.11;100.00
42621;BME280;28252;53.336;-6.298;2023-05-02T02:00:53;101821.31;;;21.10;100.00
42621;BME280;28252;53.336;-6.298;2023-05-02T02:01:32;101822.31;;;21.08;100.00
42621;BME280;28252;53.336;-6.298;2023-05-02T02:02:05;101824.03;;;21.10;100.00
42621;BME280;28252;53.336;-6.298;2023-05-02T02:02:38;101812.31;;;21.09;100.00
42621;BME280;28252;53.336;-6.298;2023-05-02T02:03:13;101816.91;;;21.08;100.00
42621;BME280;28252;53.336;-6.298;2023-05-02T02:03:49;101822.47;;;21.07;100.00
42621;BME280;28252;53.336;-6.298;2023-05-02T02:04:25;101817.88;;;21.07;100.00
42621;BME280;28252;53.336;-6.298;2023-05-02T02:04:58;101820.59;;;21.07;100.00
42621;BME280;28252;53.336;-6.298;2023-05-02T02:05:37;101827.72;;;21.08;100.00
42621;BME280;28252;53.336;-6.298;2023-05-02T02:06:16;101824.19;;;21.08;100.00
42621;BME280;28252;53.336;-6.298;2023-05-02T02:06:53;101822.47;;;21.07;100.00
42621;BME280;28252;53.336;-6.298;2023-05-02T02:07:27;101821.63;;;21.06;100.00
42621;BME280;28252;53.336;-6.298;2023-05-02T02:08:03;101818.91;;;21.06;100.00
42621;BME280;28252;53.336;-6.298;2023-05-02T02:08:36;101817.03;;;21.07;100.00
42621;BME280;28252;53.336;-6.298;2023-05-02T02:09:10;101819.91;;;21.05;100.00
42621;BME280;28252;53.336;-6.298;2023-05-02T02:09:44;101828.03;;;21.05;100.00
42621;BME280;28252;53.336;-6.298;2023-05-02T02:10:18;101832.44;;;21.06;100.00
42621;BME280;28252;53.336;-6.298;2023-05-02T02:10:56;101827.03;;;21.06;100.00
42621;BME280;28252;53.336;-6.298;2023-05-02T02:11:33;101826.16;;;21.06;100.00
42621;BME280;28252;53.336;-6.298;2023-05-02T02:12:16;101824.47;;;21.05;100.00
42621;BME280;28252;53.336;-6.298;2023-05-02T02:13:01;101827.19;;;21.05;100.00
42621;BME280;28252;53.336;-6.298;2023-05-02T02:13:38;101829.03;;;21.04;100.00
42621;BME280;28252;53.336;-6.298;2023-05-02T02:14:16;101838.16;;;21.03;100.00
42621;BME280;28252;53.336;-6.298;2023-05-02T02:15:37;101835.44;;;21.03;100.00
42621;BME280;28252;53.336;-6.298;2023-05-02T02:16:11;101841.72;;;21.04;100.00
42621;BME280;28252;53.336;-6.298;2023-05-02T02:16:46;101827.31;;;21.03;100.00
42621;BME280;28252;53.336;-6.298;2023-05-02T02:17:22;101827.31;;;21.03;100.00
42621;BME280;28252;53.336;-6.298;2023-05-02T02:18:00;101824.63;;;21.03;100.00
42621;BME280;28252;53.336;-6.298;2023-05-02T02:18:37;101829.19;;;21.03;100.00
42621;BME280;28252;53.336;-6.298;2023-05-02T02:19:14;101827.31;;;21.03;100.00
42621;BME280;28252;53.336;-6.298;2023-05-02T02:19:45;101837.31;;;21.03;100.00
42621;BME280;28252;53.336;-6.298;2023-05-02T02:20:19;101835.44;;;21.03;100.00
42621;BME280;28252;53.336;-6.298;2023-05-02T02:20:55;101827.31;;;21.03;100.00
42621;BME280;28252;53.336;-6.298;2023-05-02T02:21:28;101828.31;;;21.02;100.00
42621;BME280;28252;53.336;-6.298;2023-05-02T02:22:03;101827.31;;;21.03;100.00
42621;BME280;28252;53.336;-6.298;2023-05-02T02:22:36;101827.47;;;21.02;100.00
42621;BME280;28252;53.336;-6.298;2023-05-02T02:23:11;101839.16;;;21.02;100.00
42621;BME280;28252;53.336;-6.298;2023-05-02T02:23:45;101826.47;;;21.03;100.00
42621;BME280;28252;53.336;-6.298;2023-05-02T02:24:20;101832.88;;;21.02;100.00
42621;BME280;28252;53.336;-6.298;2023-05-02T02:24:54;101820.19;;;21.02;100.00
42621;BME280;28252;53.336;-6.298;2023-05-02T02:25:31;101831.03;;;21.02;100.00
42621;BME280;28252;53.336;-6.298;2023-05-02T02:26:07;101825.59;;;21.02;100.00
42621;BME280;28252;53.336;-6.298;2023-05-02T02:26:41;101824.75;;;21.02;100.00
42621;BME280;28252;53.336;-6.298;2023-05-02T02:27:14;101829.34;;;21.01;100.00
42621;BME280;28252;53.336;-6.298;2023-05-02T02:27:48;101839.16;;;21.02;100.00
42621;BME280;28252;53.336;-6.298;2023-05-02T02:28:20;101827.47;;;21.02;100.00
42621;BME280;28252;53.336;-6.298;2023-05-02T02:28:52;101835.59;;;21.02;100.00
42621;BME280;28252;53.336;-6.298;2023-05-02T02:29:29;101832.03;;;21.01;100.00
42621;BME280;28252;53.336;-6.298;2023-05-02T02:30:00;101833.88;;;21.01;100.00
42621;BME280;28252;53.336;-6.298;2023-05-02T02:30:33;101837.47;;;21.01;100.00
42621;BME280;28252;53.336;-6.298;2023-05-02T02:31:06;101822.34;;;20.99;100.00
42621;BME280;28252;53.336;-6.298;2023-05-02T02:31:44;101841.31;;;20.99;100.00
42621;BME280;28252;53.336;-6.298;2023-05-02T02:32:15;101835.88;;;20.99;100.00
42621;BME280;28252;53.336;-6.298;2023-05-02T02:32:48;101833.03;;;21.00;100.00
42621;BME280;28252;53.336;-6.298;2023-05-02T02:33:22;101835.88;;;20.99;100.00
42621;BME280;28252;53.336;-6.298;2023-05-02T02:33:59;101835.03;;;20.98;100.00
42621;BME280;28252;53.336;-6.298;2023-05-02T02:34:34;101829.63;;;20.98;100.00
42621;BME280;28252;53.336;-6.298;2023-05-02T02:35:08;101834.19;;;20.98;100.00
42621;BME280;28252;53.336;-6.298;2023-05-02T02:35:43;101835.03;;;20.98;100.00
42621;BME280;28252;53.336;-6.298;2023-05-02T02:36:20;101839.63;;;20.98;100.00
42621;BME280;28252;53.336;-6.298;2023-05-02T02:37:22;101833.31;;;20.97;100.00
42621;BME280;28252;53.336;-6.298;2023-05-02T02:42:30;101844.44;;;20.94;100.00
42621;BME280;28252;53.336;-6.298;2023-05-02T02:44:03;101839.03;;;20.94;100.00
42621;BME280;28252;53.336;-6.298;2023-05-02T02:44:41;101844.44;;;20.94;100.00
42621;BME280;28252;53.336;-6.298;2023-05-02T02:45:32;101839.03;;;20.94;100.00
42621;BME280;28252;53.336;-6.298;2023-05-02T02:47:08;101842.75;;;20.93;100.00
42621;BME280;28252;53.336;-6.298;2023-05-02T02:48:28;101845.59;;;20.92;100.00
42621;BME280;28252;53.336;-6.298;2023-05-02T02:48:49;101842.06;;;20.91;100.00
42621;BME280;28252;53.336;-6.298;2023-05-02T02:50:51;101834.91;;;20.90;100.00
42621;BME280;28252;53.336;-6.298;2023-05-02T02:51:41;101847.47;;;20.91;100.00
42621;BME280;28252;53.336;-6.298;2023-05-02T02:52:20;101845.59;;;20.92;100.00
42621;BME280;28252;53.336;-6.298;2023-05-02T02:55:11;101840.34;;;20.90;100.00
42621;BME280;28252;53.336;-6.298;2023-05-02T02:55:50;101846.75;;;20.89;100.00
42621;BME280;28252;53.336;-6.298;2023-05-02T02:56:26;101847.75;;;20.88;100.00
42621;BME280;28252;53.336;-6.298;2023-05-02T02:57:23;101845.06;;;20.88;100.00
42621;BME280;28252;53.336;-6.298;2023-05-02T02:57:57;101847.75;;;20.88;100.00
42621;BME280;28252;53.336;-6.298;2023-05-02T02:59:27;101847.75;;;20.88;100.00
42621;BME280;28252;53.336;-6.298;2023-05-02T03:00:06;101845.06;;;20.88;100.00
42621;BME280;28252;53.336;-6.298;2023-05-02T03:00:40;101846.03;;;20.87;100.00
42621;BME280;28252;53.336;-6.298;2023-05-02T03:01:17;101841.66;;;20.86;100.00
42621;BME280;28252;53.336;-6.298;2023-05-02T03:01:55;101849.75;;;20.86;100.00
42621;BME280;28252;53.336;-6.298;2023-05-02T03:02:32;101847.06;;;20.86;100.00
42621;BME280;28252;53.336;-6.298;2023-05-02T03:03:05;101844.34;;;20.86;100.00
42621;BME280;28252;53.336;-6.298;2023-05-02T03:03:41;101844.34;;;20.86;100.00
42621;BME280;28252;53.336;-6.298;2023-05-02T03:04:17;101841.66;;;20.86;100.00
42621;BME280;28252;53.336;-6.298;2023-05-02T03:04:53;101847.06;;;20.86;100.00
42621;BME280;28252;53.336;-6.298;2023-05-02T03:05:30;101846.19;;;20.85;100.00
42621;BME280;28252;53.336;-6.298;2023-05-02T03:06:05;101850.75;;;20.85;100.00
42621;BME280;28252;53.336;-6.298;2023-05-02T03:06:41;101850.75;;;20.85;100.00
42621;BME280;28252;53.336;-6.298;2023-05-02T03:07:16;101850.06;;;20.83;100.00
42621;BME280;28252;53.336;-6.298;2023-05-02T03:07:51;101849.03;;;20.84;100.00
42621;BME280;28252;53.336;-6.298;2023-05-02T03:08:37;101849.91;;;20.84;100.00
42621;BME280;28252;53.336;-6.298;2023-05-02T03:09:14;101845.47;;;20.83;100.00
42621;BME280;28252;53.336;-6.298;2023-05-02T03:09:48;101854.44;;;20.84;100.00
42621;BME280;28252;53.336;-6.298;2023-05-02T03:10:27;101853.59;;;20.83;100.00
42621;BME280;28252;53.336;-6.298;2023-05-02T03:11:00;101847.34;;;20.83;100.00
42621;BME280;28252;53.336;-6.298;2023-05-02T03:11:34;101850.06;;;20.83;100.00
42621;BME280;28252;53.336;-6.298;2023-05-02T03:12:09;101851.91;;;20.82;100.00
42621;BME280;28252;53.336;-6.298;2023-05-02T03:12:42;101850.06;;;20.83;100.00
42621;BME280;28252;53.336;-6.298;2023-05-02T03:13:17;101844.63;;;20.83;100.00
42621;BME280;28252;53.336;-6.298;2023-05-02T03:13:51;101847.34;;;20.83;100.00
42621;BME280;28252;53.336;-6.298;2023-05-02T03:14:26;101851.91;;;20.82;100.00
42621;BME280;28252;53.336;-6.298;2023-05-02T03:16:30;101846.50;;;20.82;100.00
42621;BME280;28252;53.336;-6.298;2023-05-02T03:17:03;101845.63;;;20.82;100.00
42621;BME280;28252;53.336;-6.298;2023-05-02T03:17:36;101841.09;;;20.82;100.00
42621;BME280;28252;53.336;-6.298;2023-05-02T03:18:12;101841.22;;;20.81;100.00
42621;BME280;28252;53.336;-6.298;2023-05-02T03:18:48;101843.94;;;20.81;100.00
42621;BME280;28252;53.336;-6.298;2023-05-02T03:19:19;101843.94;;;20.81;100.00
42621;BME280;28252;53.336;-6.298;2023-05-02T03:19:53;101849.34;;;20.81;100.00
42621;BME280;28252;53.336;-6.298;2023-05-02T03:20:24;101838.53;;;20.81;100.00
42621;BME280;28252;53.336;-6.298;2023-05-02T03:20:55;101848.47;;;20.80;100.00
42621;BME280;28252;53.336;-6.298;2023-05-02T03:21:27;101841.22;;;20.81;100.00
42621;BME280;28252;53.336;-6.298;2023-05-02T03:22:00;101841.22;;;20.81;100.00
42621;BME280;28252;53.336;-6.298;2023-05-02T03:22:33;101844.94;;;20.80;100.00
42621;BME280;28252;53.336;-6.298;2023-05-02T03:23:07;101844.94;;;20.80;100.00
42621;BME280;28252;53.336;-6.298;2023-05-02T03:23:42;101842.22;;;20.80;100.00
42621;BME280;28252;53.336;-6.298;2023-05-02T03:24:16;101847.63;;;20.80;100.00
42621;BME280;28252;53.336;-6.298;2023-05-02T03:24:50;101846.78;;;20.79;100.00
42621;BME280;28252;53.336;-6.298;2023-05-02T03:25:21;101845.06;;;20.78;100.00
42621;BME280;28252;53.336;-6.298;2023-05-02T03:25:54;101851.31;;;20.79;100.00
42621;BME280;28252;53.336;-6.298;2023-05-02T03:26:29;101847.91;;;20.77;100.00
42621;BME280;28252;53.336;-6.298;2023-05-02T03:27:03;101844.38;;;20.76;100.00
42621;BME280;28252;53.336;-6.298;2023-05-02T03:27:42;101857.91;;;20.76;100.00
42621;BME280;28252;53.336;-6.298;2023-05-02T03:28:16;101850.63;;;20.77;100.00
42621;BME280;28252;53.336;-6.298;2023-05-02T03:28:50;101854.22;;;20.77;100.00
42621;BME280;28252;53.336;-6.298;2023-05-02T03:29:29;101849.78;;;20.76;100.00
42621;BME280;28252;53.336;-6.298;2023-05-02T03:30:04;101853.34;;;20.77;100.00
42621;BME280;28252;53.336;-6.298;2023-05-02T03:30:36;101853.34;;;20.77;100.00
42621;BME280;28252;53.336;-6.298;2023-05-02T03:31:13;101844.50;;;20.75;100.00
42621;BME280;28252;53.336;-6.298;2023-05-02T03:31:47;101844.50;;;20.75;100.00
42621;BME280;28252;53.336;-6.298;2023-05-02T03:32:18;101847.22;;;20.75;100.00
42621;BME280;28252;53.336;-6.298;2023-05-02T03:32:54;101843.66;;;20.74;100.00
42621;BME280;28252;53.336;-6.298;2023-05-02T03:33:28;101844.50;;;20.75;100.00
42621;BME280;28252;53.336;-6.298;2023-05-02T03:34:01;101845.50;;;20.74;100.00